Time;durP1;ratioP1;P1;durP2;ratioP2;P2;SDS_P1;SDS_P2;PMS_P1;PMS_P2;Temp;Humidity;BMP_temperature;BMP_pressure;BME280_temperature;BME280_humidity;BME280_pressure;Samples;Min_cycle;Max_cycle;Signal;HPM_P1;HPM_P2
2021/01/28 00:01:07;;;;;;;111.73;40.67;;;6.30;99.90;;;;;;5094241;28;20447;-78
2021/01/28 00:03:33;;;;;;;161.90;48.63;;;6.30;99.90;;;;;;5107004;28;21025;-77
2021/01/28 00:06:00;;;;;;;149.30;48.13;;;6.30;99.90;;;;;;5114035;28;20945;-80
2021/01/28 00:08:26;;;;;;;130.13;44.73;;;6.20;99.90;;;;;;5114987;28;20449;-78
2021/01/28 00:10:53;;;;;;;105.67;43.20;;;6.20;99.90;;;;;;5115091;28;20423;-77
2021/01/28 00:13:19;;;;;;;109.40;41.37;;;6.30;99.90;;;;;;5114772;28;20764;-77
2021/01/28 00:15:46;;;;;;;106.20;38.70;;;6.30;99.90;;;;;;5115007;28;20450;-77
2021/01/28 00:18:14;;;;;;;96.97;39.17;;;6.30;99.90;;;;;;5115044;28;20784;-77
2021/01/28 00:20:42;;;;;;;112.80;42.17;;;6.30;99.90;;;;;;5114866;28;20858;-77
2021/01/28 00:23:09;;;;;;;105.73;38.60;;;6.40;99.90;;;;;;5114731;28;20528;-77
2021/01/28 00:25:36;;;;;;;100.53;38.90;;;6.30;99.90;;;;;;5114811;28;20480;-77
2021/01/28 00:28:04;;;;;;;98.87;38.80;;;6.30;99.90;;;;;;5114496;28;20497;-83
2021/01/28 00:30:33;;;;;;;81.80;38.60;;;6.30;99.90;;;;;;5114819;28;20471;-77
2021/01/28 00:33:00;;;;;;;138.67;46.13;;;6.30;99.90;;;;;;5114339;28;20457;-81
2021/01/28 00:35:32;;;;;;;129.17;44.37;;;6.40;99.90;;;;;;5113823;28;20463;-78
2021/01/28 00:37:59;;;;;;;88.47;38.07;;;6.40;99.90;;;;;;5114713;28;20438;-77
2021/01/28 00:40:29;;;;;;;92.87;39.77;;;6.40;99.90;;;;;;5114141;28;20503;-77
2021/01/28 00:42:56;;;;;;;99.67;39.73;;;6.40;99.90;;;;;;5113818;28;20925;-77
2021/01/28 00:45:25;;;;;;;125.33;44.30;;;6.40;99.90;;;;;;5113331;28;20477;-77
2021/01/28 00:47:52;;;;;;;102.83;38.83;;;6.40;99.90;;;;;;5112734;28;20544;-77
2021/01/28 00:50:20;;;;;;;111.47;42.30;;;6.40;99.90;;;;;;5114340;28;20537;-78
2021/01/28 00:52:47;;;;;;;97.60;39.17;;;6.40;99.90;;;;;;5102176;28;20479;-77
2021/01/28 00:55:15;;;;;;;106.60;42.07;;;6.40;99.90;;;;;;5113961;28;20453;-78
2021/01/28 00:57:42;;;;;;;123.60;45.33;;;6.30;99.90;;;;;;5114352;28;20473;-78
2021/01/28 01:00:13;;;;;;;89.80;40.77;;;6.30;99.90;;;;;;5106640;28;20446;-78
2021/01/28 01:02:42;;;;;;;106.67;45.70;;;6.30;99.90;;;;;;5094563;28;20525;-77
2021/01/28 01:05:10;;;;;;;127.60;46.27;;;6.30;99.90;;;;;;5113266;28;20491;-78
2021/01/28 01:07:36;;;;;;;106.77;41.10;;;6.20;99.90;;;;;;5114649;28;20441;-77
2021/01/28 01:10:06;;;;;;;87.83;40.90;;;6.30;99.90;;;;;;5097512;28;20461;-80
2021/01/28 01:12:33;;;;;;;105.33;41.63;;;6.30;99.90;;;;;;5094438;28;20489;-77
2021/01/28 01:14:59;;;;;;;115.60;41.00;;;6.30;99.90;;;;;;5108486;28;20456;-78
2021/01/28 01:17:26;;;;;;;100.17;38.73;;;6.30;99.90;;;;;;5114296;28;20441;-78
2021/01/28 01:19:52;;;;;;;143.53;48.23;;;6.30;99.90;;;;;;5114681;28;20549;-77
2021/01/28 01:22:18;;;;;;;91.10;39.80;;;6.20;99.90;;;;;;5114171;28;20532;-77
2021/01/28 01:24:45;;;;;;;84.60;39.10;;;6.30;99.90;;;;;;5114766;28;20560;-78
2021/01/28 01:27:12;;;;;;;90.53;38.70;;;6.30;99.90;;;;;;5114262;28;20567;-77
2021/01/28 01:29:38;;;;;;;103.47;41.57;;;6.40;99.90;;;;;;5114732;28;20441;-77
2021/01/28 01:32:05;;;;;;;146.07;47.27;;;6.40;99.90;;;;;;5114395;28;20497;-78
2021/01/28 01:34:32;;;;;;;97.20;40.30;;;6.40;99.90;;;;;;5114464;28;20461;-78
2021/01/28 01:36:58;;;;;;;86.70;35.93;;;6.30;99.90;;;;;;5116754;28;20449;-78
2021/01/28 01:39:24;;;;;;;83.03;40.50;;;6.30;99.90;;;;;;5114377;28;20536;-77
2021/01/28 01:41:51;;;;;;;69.70;34.00;;;6.40;99.90;;;;;;5114659;28;20528;-78
2021/01/28 01:44:18;;;;;;;73.10;34.03;;;6.40;99.90;;;;;;5113900;28;20921;-78
2021/01/28 01:46:51;;;;;;;107.93;40.87;;;6.40;99.90;;;;;;5114079;28;20936;-77
2021/01/28 01:49:22;;;;;;;75.80;34.03;;;6.40;99.90;;;;;;5114066;28;20969;-78
2021/01/28 01:51:49;;;;;;;68.43;32.47;;;6.50;99.90;;;;;;5114689;28;20552;-78
2021/01/28 01:54:23;;;;;;;77.47;38.50;;;6.50;99.90;;;;;;5114941;28;20497;-78
2021/01/28 01:56:53;;;;;;;76.97;32.90;;;6.50;99.90;;;;;;5117992;28;20469;-78
2021/01/28 01:59:27;;;;;;;162.73;47.13;;;6.40;99.90;;;;;;5117586;28;20438;-77
2021/01/28 02:02:01;;;;;;;82.50;34.80;;;6.30;99.90;;;;;;5117781;28;20447;-77
2021/01/28 02:04:29;;;;;;;78.77;33.90;;;6.20;99.90;;;;;;5117490;28;20442;-77
2021/01/28 02:07:00;;;;;;;103.07;36.00;;;6.30;99.90;;;;;;5117344;28;20444;-77
2021/01/28 02:09:26;;;;;;;72.93;34.20;;;6.30;99.90;;;;;;5117349;28;20438;-77
2021/01/28 02:11:53;;;;;;;137.00;41.93;;;6.20;99.90;;;;;;5117750;28;21185;-77
2021/01/28 02:14:20;;;;;;;74.80;32.90;;;6.20;99.90;;;;;;5117574;27;20901;-77
2021/01/28 02:16:50;;;;;;;79.70;34.57;;;6.20;99.90;;;;;;5117374;28;20453;-77
2021/01/28 02:19:34;;;;;;;70.40;34.33;;;6.30;99.90;;;;;;5117552;28;20516;-78
2021/01/28 02:22:01;;;;;;;72.03;31.70;;;6.30;99.90;;;;;;5117370;28;20923;-78
2021/01/28 02:24:35;;;;;;;66.73;32.03;;;6.40;99.90;;;;;;5116868;28;20453;-80
2021/01/28 02:27:07;;;;;;;71.80;32.27;;;6.30;99.90;;;;;;5117209;28;20919;-83
2021/01/28 02:29:33;;;;;;;76.90;30.50;;;6.40;99.90;;;;;;5117526;28;20521;-77
2021/01/28 02:32:00;;;;;;;76.43;32.07;;;6.30;99.90;;;;;;5117327;28;20453;-80
2021/01/28 02:34:27;;;;;;;78.97;33.13;;;6.40;99.90;;;;;;5117318;28;20448;-77
2021/01/28 02:36:55;;;;;;;70.47;30.80;;;6.40;99.90;;;;;;5117205;28;20940;-77
2021/01/28 02:39:26;;;;;;;76.23;32.40;;;6.40;99.90;;;;;;5117076;28;20760;-78
2021/01/28 02:42:00;;;;;;;66.30;29.83;;;6.40;99.90;;;;;;5117296;28;20450;-78
2021/01/28 02:44:28;;;;;;;70.50;29.80;;;6.40;99.90;;;;;;5116745;28;20433;-77
2021/01/28 02:46:54;;;;;;;61.33;28.70;;;6.40;99.90;;;;;;5116557;28;20469;-77
2021/01/28 02:49:20;;;;;;;66.00;29.13;;;6.30;99.90;;;;;;5116946;28;20540;-78
2021/01/28 02:51:47;;;;;;;68.73;27.33;;;6.40;99.90;;;;;;5116449;28;20449;-77
2021/01/28 02:54:14;;;;;;;61.17;28.80;;;6.40;99.90;;;;;;5101417;28;20507;-78
2021/01/28 02:56:41;;;;;;;116.13;36.50;;;6.40;99.90;;;;;;5096276;28;20478;-78
2021/01/28 02:59:08;;;;;;;125.37;38.33;;;6.40;99.90;;;;;;5096616;28;20496;-78
2021/01/28 03:01:38;;;;;;;68.37;27.00;;;6.30;99.90;;;;;;5103990;28;20921;-78
2021/01/28 03:04:05;;;;;;;79.27;31.20;;;6.30;99.90;;;;;;5116625;28;20425;-84
2021/01/28 03:06:32;;;;;;;68.23;30.73;;;6.30;99.90;;;;;;5115178;28;20493;-77
2021/01/28 03:08:59;;;;;;;62.93;28.83;;;6.30;99.90;;;;;;5116184;28;20536;-78
2021/01/28 03:11:25;;;;;;;85.33;33.90;;;6.40;99.90;;;;;;5116337;28;20463;-77
2021/01/28 03:13:52;;;;;;;105.83;37.63;;;6.30;99.90;;;;;;5116519;28;20452;-77
2021/01/28 03:16:18;;;;;;;62.87;24.57;;;6.30;99.90;;;;;;5115833;28;20461;-78
2021/01/28 03:18:45;;;;;;;87.60;29.67;;;6.30;99.90;;;;;;5111284;28;20933;-78
2021/01/28 03:21:13;;;;;;;57.23;24.77;;;6.30;99.90;;;;;;5095564;28;20454;-78
2021/01/28 03:23:40;;;;;;;83.40;30.17;;;6.40;99.90;;;;;;5095651;28;20533;-78
2021/01/28 03:26:06;;;;;;;54.07;23.67;;;6.30;99.90;;;;;;5106978;28;20527;-78
2021/01/28 03:28:32;;;;;;;81.37;30.60;;;6.30;99.90;;;;;;5112498;28;20453;-77
2021/01/28 03:30:59;;;;;;;56.93;23.67;;;6.20;99.90;;;;;;5115259;28;20452;-78
2021/01/28 03:33:25;;;;;;;57.23;27.40;;;6.30;99.90;;;;;;5115222;28;20513;-77
2021/01/28 03:35:52;;;;;;;109.37;35.17;;;6.30;99.90;;;;;;5115559;28;20489;-77
2021/01/28 03:38:20;;;;;;;61.33;26.00;;;6.30;99.90;;;;;;5115381;28;20528;-78
2021/01/28 03:40:46;;;;;;;57.17;26.67;;;6.30;99.90;;;;;;5115500;28;20445;-78
2021/01/28 03:43:13;;;;;;;49.83;24.90;;;6.30;99.90;;;;;;5114770;28;20457;-78
2021/01/28 03:45:39;;;;;;;67.97;29.23;;;6.30;99.90;;;;;;5115165;28;20545;-78
2021/01/28 03:48:06;;;;;;;52.50;25.60;;;6.20;99.90;;;;;;5114969;28;20507;-86
2021/01/28 03:50:37;;;;;;;47.37;25.00;;;6.20;99.90;;;;;;5115232;28;20459;-77
2021/01/28 03:53:05;;;;;;;49.67;24.30;;;6.30;99.90;;;;;;5103936;28;20802;-82
2021/01/28 03:55:32;;;;;;;58.33;27.37;;;6.30;99.90;;;;;;5094865;28;20461;-78
2021/01/28 03:57:59;;;;;;;40.57;23.17;;;6.30;99.90;;;;;;5095125;28;20488;-78
2021/01/28 04:00:27;;;;;;;68.83;27.67;;;6.30;99.90;;;;;;5105368;28;20438;-77
2021/01/28 04:02:54;;;;;;;87.00;31.93;;;6.30;99.90;;;;;;5115488;28;20841;-78
2021/01/28 04:05:21;;;;;;;45.30;24.03;;;6.20;99.90;;;;;;5114937;28;20485;-77
2021/01/28 04:07:47;;;;;;;42.97;24.30;;;6.20;99.90;;;;;;5115576;28;20509;-77
2021/01/28 04:10:18;;;;;;;48.90;25.40;;;6.20;99.90;;;;;;5114439;28;20457;-77
2021/01/28 04:12:45;;;;;;;53.00;26.27;;;6.20;99.90;;;;;;5115043;28;20439;-77
2021/01/28 04:15:13;;;;;;;45.83;23.50;;;6.20;99.90;;;;;;5114831;28;20471;-78
2021/01/28 04:17:40;;;;;;;49.63;25.97;;;6.20;99.90;;;;;;5114944;28;20500;-78
2021/01/28 04:20:08;;;;;;;42.10;22.20;;;6.20;99.90;;;;;;5114879;28;20456;-81
2021/01/28 04:22:35;;;;;;;37.40;20.47;;;6.30;99.90;;;;;;5114887;28;20505;-77
2021/01/28 04:25:01;;;;;;;54.33;27.20;;;6.40;99.90;;;;;;5115007;28;20491;-78
2021/01/28 04:27:29;;;;;;;38.17;20.33;;;6.40;99.90;;;;;;5114464;28;20894;-78
2021/01/28 04:29:55;;;;;;;41.53;21.60;;;6.30;99.90;;;;;;5114949;28;20536;-78
2021/01/28 04:32:21;;;;;;;46.50;23.40;;;6.40;99.90;;;;;;5114563;28;20558;-78
2021/01/28 04:34:48;;;;;;;39.43;22.07;;;6.40;99.90;;;;;;5114810;28;20454;-78
2021/01/28 04:37:14;;;;;;;45.07;21.50;;;6.40;99.90;;;;;;5114648;28;20450;-78
2021/01/28 04:39:41;;;;;;;40.47;21.50;;;6.40;99.90;;;;;;5114931;28;20776;-78
2021/01/28 04:42:12;;;;;;;34.27;20.20;;;6.40;99.90;;;;;;5114364;28;20444;-84
2021/01/28 04:44:39;;;;;;;38.27;21.47;;;6.40;99.90;;;;;;5114630;28;20529;-78
2021/01/28 04:47:08;;;;;;;42.73;22.07;;;6.30;99.90;;;;;;5114759;28;20485;-80
2021/01/28 04:49:35;;;;;;;38.57;22.07;;;6.40;99.90;;;;;;5114640;28;20453;-78
2021/01/28 04:52:04;;;;;;;34.27;19.70;;;6.40;99.90;;;;;;5114799;28;20441;-78
2021/01/28 04:54:33;;;;;;;34.20;18.93;;;6.50;99.90;;;;;;5114168;28;20459;-77
2021/01/28 04:57:06;;;;;;;31.90;19.50;;;6.60;99.90;;;;;;5114377;28;20901;-78
2021/01/28 04:59:36;;;;;;;32.90;19.77;;;6.60;99.90;;;;;;5114323;28;20434;-78
2021/01/28 05:02:07;;;;;;;32.00;20.40;;;6.70;99.90;;;;;;5114489;28;20449;-78
2021/01/28 05:04:39;;;;;;;31.03;18.30;;;6.70;99.90;;;;;;5114355;28;20525;-78
2021/01/28 05:07:11;;;;;;;45.20;22.80;;;6.70;99.90;;;;;;5114557;28;20771;-78
2021/01/28 05:09:38;;;;;;;39.40;19.57;;;6.60;99.90;;;;;;5114735;28;20743;-78
2021/01/28 05:12:05;;;;;;;33.57;18.67;;;6.60;99.90;;;;;;5114290;28;20447;-78
2021/01/28 05:14:33;;;;;;;35.80;19.50;;;6.60;99.90;;;;;;5114136;28;20456;-78
2021/01/28 05:17:01;;;;;;;43.63;22.30;;;6.70;99.90;;;;;;5114691;28;20467;-77
2021/01/28 05:19:39;;;;;;;34.57;19.90;;;6.60;99.90;;;;;;5113628;28;20451;-78
2021/01/28 05:22:19;;;;;;;31.90;19.47;;;6.60;99.90;;;;;;5113994;28;20747;-77
2021/01/28 05:24:48;;;;;;;34.57;19.20;;;6.60;99.90;;;;;;5114507;28;20483;-78
2021/01/28 05:27:19;;;;;;;31.40;19.23;;;6.70;99.90;;;;;;5113997;28;20536;-78
2021/01/28 05:29:48;;;;;;;35.30;17.20;;;6.70;99.90;;;;;;5115737;28;20901;-78
2021/01/28 05:32:33;;;;;;;30.47;18.33;;;6.70;99.90;;;;;;5118101;28;20449;-78
2021/01/28 05:35:24;;;;;;;25.73;16.70;;;6.60;99.90;;;;;;5106545;28;20446;-78
2021/01/28 05:38:03;;;;;;;27.73;16.00;;;6.60;99.90;;;;;;5097927;28;20489;-78
2021/01/28 05:40:30;;;;;;;25.50;15.50;;;6.40;99.90;;;;;;5097747;28;20553;-78
2021/01/28 05:42:56;;;;;;;24.67;16.27;;;6.40;99.90;;;;;;5097809;28;20446;-78
2021/01/28 05:45:36;;;;;;;25.83;16.50;;;6.50;99.90;;;;;;5097111;28;20491;-78
2021/01/28 05:48:18;;;;;;;29.33;18.53;;;6.40;99.90;;;;;;5097430;28;20440;-78
2021/01/28 05:50:46;;;;;;;29.60;16.70;;;6.40;99.90;;;;;;5109650;28;20450;-78
2021/01/28 05:53:14;;;;;;;25.13;15.80;;;6.30;99.90;;;;;;5112611;28;20453;-81
2021/01/28 05:55:41;;;;;;;28.17;16.10;;;6.20;99.90;;;;;;5097617;28;20460;-78
2021/01/28 05:58:16;;;;;;;23.77;13.37;;;6.30;99.90;;;;;;5108420;28;20469;-78
2021/01/28 06:00:50;;;;;;;23.33;15.90;;;6.20;99.90;;;;;;5118473;28;20768;-78
2021/01/28 06:03:44;;;;;;;20.93;12.97;;;6.20;99.90;;;;;;5118168;28;20433;-78
2021/01/28 06:06:41;;;;;;;21.93;13.73;;;6.20;99.90;;;;;;5117717;28;20479;-79
2021/01/28 06:09:27;;;;;;;22.33;14.30;;;6.20;99.90;;;;;;5117744;28;20912;-78
2021/01/28 06:12:09;;;;;;;25.83;15.50;;;6.10;99.90;;;;;;5117697;28;20447;-78
2021/01/28 06:14:50;;;;;;;27.77;14.47;;;6.00;99.90;;;;;;5117548;28;20434;-78
2021/01/28 06:17:45;;;;;;;23.13;12.60;;;5.90;99.90;;;;;;5117048;28;20432;-78
2021/01/28 06:20:27;;;;;;;16.30;12.10;;;6.00;99.90;;;;;;5117450;28;20441;-81
2021/01/28 06:23:26;;;;;;;17.10;11.63;;;6.00;99.90;;;;;;5110954;28;20821;-78
2021/01/28 06:26:11;;;;;;;16.60;12.10;;;5.90;99.90;;;;;;5117365;28;20946;-77
2021/01/28 06:28:53;;;;;;;21.33;12.33;;;5.90;99.90;;;;;;5117486;28;20527;-77
2021/01/28 06:31:28;;;;;;;14.97;10.20;;;5.90;99.90;;;;;;5117263;28;20436;-78
2021/01/28 06:34:26;;;;;;;11.60;8.60;;;5.90;99.90;;;;;;5117518;28;20449;-77
2021/01/28 06:37:17;;;;;;;11.00;8.20;;;5.90;99.90;;;;;;5101066;28;20924;-78
2021/01/28 06:39:48;;;;;;;11.40;8.60;;;5.90;99.90;;;;;;5116140;28;20449;-77
2021/01/28 06:42:22;;;;;;;13.27;9.20;;;5.90;99.90;;;;;;5116671;28;20570;-81
2021/01/28 06:45:19;;;;;;;10.93;8.37;;;5.80;99.90;;;;;;5116893;28;20817;-77
2021/01/28 06:47:52;;;;;;;13.67;9.80;;;5.80;99.90;;;;;;5116251;28;20471;-77
2021/01/28 06:50:22;;;;;;;12.10;7.73;;;5.70;99.90;;;;;;5115998;28;20441;-77
2021/01/28 06:52:58;;;;;;;12.20;8.53;;;5.70;99.90;;;;;;5111373;28;20446;-78
2021/01/28 06:55:36;;;;;;;8.67;6.27;;;5.70;99.90;;;;;;5113759;28;20448;-77
2021/01/28 06:58:49;;;;;;;9.30;6.90;;;5.60;99.90;;;;;;5112229;28;20507;-78
2021/01/28 07:01:21;;;;;;;9.87;7.30;;;5.50;99.90;;;;;;5073943;28;20444;-79
2021/01/28 07:04:01;;;;;;;11.87;8.00;;;5.50;99.90;;;;;;5116001;28;20530;-77
2021/01/28 07:06:33;;;;;;;11.50;7.47;;;5.50;99.90;;;;;;5115544;28;20481;-77
2021/01/28 07:09:08;;;;;;;10.80;7.63;;;5.60;99.90;;;;;;5116092;28;20442;-77
2021/01/28 07:11:38;;;;;;;8.67;6.20;;;5.50;99.90;;;;;;5115106;28;21056;-76
2021/01/28 07:14:06;;;;;;;7.47;5.60;;;5.60;99.90;;;;;;5115909;28;20515;-76
2021/01/28 07:16:37;;;;;;;8.50;6.03;;;5.60;99.90;;;;;;5108103;28;20936;-77
2021/01/28 07:19:12;;;;;;;7.13;5.23;;;5.70;99.90;;;;;;5096143;28;20483;-76
2021/01/28 07:21:40;;;;;;;10.63;7.57;;;5.70;99.90;;;;;;5095288;28;20534;-77
2021/01/28 07:24:12;;;;;;;8.40;6.43;;;5.60;99.90;;;;;;5096335;28;20449;-76
2021/01/28 07:26:52;;;;;;;9.00;6.97;;;5.70;99.90;;;;;;5096401;28;20805;-76
2021/01/28 07:29:51;;;;;;;7.90;6.57;;;5.70;99.90;;;;;;5095957;28;20912;-77
2021/01/28 07:32:51;;;;;;;7.50;6.00;;;5.70;99.90;;;;;;5095801;28;20491;-78
2021/01/28 07:35:48;;;;;;;9.57;6.53;;;5.70;99.90;;;;;;5109530;28;20448;-79
2021/01/28 07:38:50;;;;;;;7.97;5.00;;;5.70;99.90;;;;;;5115178;28;20523;-78
2021/01/28 07:41:23;;;;;;;6.73;5.07;;;5.70;99.90;;;;;;5095983;28;20519;-77
2021/01/28 07:43:52;;;;;;;9.17;6.00;;;5.60;99.90;;;;;;5095752;28;20434;-76
2021/01/28 07:46:33;;;;;;;8.83;6.40;;;5.60;99.90;;;;;;5112317;28;21016;-77
2021/01/28 07:49:12;;;;;;;8.80;5.60;;;5.60;99.90;;;;;;5115526;28;20448;-77
2021/01/28 07:51:40;;;;;;;7.87;5.47;;;5.60;99.90;;;;;;5114963;28;20453;-76
2021/01/28 07:54:35;;;;;;;8.53;5.77;;;5.60;99.90;;;;;;5115077;28;20452;-76
2021/01/28 07:57:04;;;;;;;8.23;5.60;;;5.60;99.90;;;;;;5116108;28;20578;-76
2021/01/28 07:59:40;;;;;;;7.97;5.37;;;5.60;99.90;;;;;;5117541;28;20447;-77
2021/01/28 08:02:19;;;;;;;6.67;5.60;;;5.50;99.90;;;;;;5116154;28;20860;-77
2021/01/28 08:04:49;;;;;;;10.20;5.90;;;5.50;99.90;;;;;;5116154;28;20513;-77
2021/01/28 08:07:22;;;;;;;9.80;6.60;;;5.50;99.90;;;;;;5106903;28;20455;-77
2021/01/28 08:09:52;;;;;;;9.47;6.67;;;5.50;99.90;;;;;;5096151;28;20830;-76
2021/01/28 08:12:29;;;;;;;8.77;6.00;;;5.50;99.90;;;;;;5115627;28;20858;-77
2021/01/28 08:14:57;;;;;;;7.77;5.63;;;5.40;99.90;;;;;;5107570;28;20442;-78
2021/01/28 08:17:29;;;;;;;8.70;5.40;;;5.40;99.90;;;;;;5101842;28;20550;-78
2021/01/28 08:20:18;;;;;;;8.97;5.90;;;5.40;99.90;;;;;;5114386;28;20463;-78
2021/01/28 08:22:53;;;;;;;7.17;4.83;;;5.30;99.90;;;;;;5114972;28;20433;-78
2021/01/28 08:25:21;;;;;;;7.57;5.70;;;5.30;99.90;;;;;;5115877;28;20590;-77
2021/01/28 08:27:47;;;;;;;5.70;3.80;;;5.30;99.90;;;;;;5115657;28;20503;-77
2021/01/28 08:30:21;;;;;;;5.80;3.90;;;5.30;99.90;;;;;;5114955;28;20456;-77
2021/01/28 08:32:55;;;;;;;5.67;4.73;;;5.30;99.90;;;;;;5097380;28;20896;-77
2021/01/28 08:35:26;;;;;;;7.40;5.10;;;5.30;99.90;;;;;;5094936;28;20798;-77
2021/01/28 08:38:06;;;;;;;9.53;6.37;;;5.30;99.90;;;;;;5095192;28;20443;-76
2021/01/28 08:40:35;;;;;;;10.47;5.43;;;5.40;99.90;;;;;;5095702;28;20434;-76
2021/01/28 08:43:13;;;;;;;15.93;8.47;;;5.50;99.90;;;;;;5094469;28;20519;-77
2021/01/28 08:49:45;;;;;;;19.50;11.80;;;5.50;99.90;;;;;;5094746;28;20748;-77
2021/01/28 08:52:16;;;;;;;24.23;15.40;;;5.50;99.90;;;;;;5103159;28;20432;-77
2021/01/28 08:54:45;;;;;;;39.23;25.00;;;5.60;99.90;;;;;;5114692;28;20433;-77
2021/01/28 08:57:15;;;;;;;46.83;29.70;;;5.60;99.90;;;;;;5114904;28;20492;-77
2021/01/28 08:59:45;;;;;;;46.30;29.03;;;5.60;99.90;;;;;;5115053;28;20516;-77
2021/01/28 09:02:14;;;;;;;45.17;25.53;;;5.70;99.90;;;;;;5114648;28;20481;-78
2021/01/28 09:04:45;;;;;;;36.00;23.30;;;5.70;99.90;;;;;;5116479;28;20824;-77
2021/01/28 09:07:12;;;;;;;38.00;23.97;;;5.70;99.90;;;;;;5119163;28;20508;-77
2021/01/28 09:09:39;;;;;;;42.93;26.07;;;5.80;99.90;;;;;;5118638;28;20480;-76
2021/01/28 09:12:21;;;;;;;45.60;31.23;;;5.80;99.90;;;;;;5119010;28;20449;-77
2021/01/28 09:14:47;;;;;;;38.50;26.07;;;5.80;99.90;;;;;;5119534;28;20552;-78
2021/01/28 09:17:23;;;;;;;32.23;22.27;;;5.80;99.90;;;;;;5118818;28;20453;-76
2021/01/28 09:19:55;;;;;;;43.20;25.93;;;5.80;99.90;;;;;;5114859;28;20441;-76
2021/01/28 09:22:33;;;;;;;17.93;12.33;;;5.70;99.90;;;;;;5112524;28;20450;-77
2021/01/28 09:25:13;;;;;;;11.20;8.03;;;5.60;99.90;;;;;;5118237;28;20429;-77
2021/01/28 09:27:40;;;;;;;12.03;7.87;;;5.50;99.90;;;;;;5118162;28;20527;-76
2021/01/28 09:30:17;;;;;;;7.70;5.20;;;5.60;99.90;;;;;;5118966;28;20445;-76
2021/01/28 09:32:43;;;;;;;9.17;6.50;;;5.50;99.90;;;;;;5118678;28;20487;-77
2021/01/28 09:35:14;;;;;;;7.87;4.80;;;5.50;99.90;;;;;;5118246;28;20586;-76
2021/01/28 09:37:42;;;;;;;7.73;5.27;;;5.60;99.90;;;;;;5107952;28;20898;-76
2021/01/28 09:40:21;;;;;;;6.67;4.83;;;5.60;99.90;;;;;;5107879;27;20536;-77
2021/01/28 09:42:48;;;;;;;10.37;6.23;;;5.60;99.90;;;;;;5116881;28;20434;-77
2021/01/28 09:45:22;;;;;;;7.63;5.33;;;5.60;99.90;;;;;;5116226;28;20928;-77
2021/01/28 09:47:53;;;;;;;7.50;4.37;;;5.60;99.90;;;;;;5111455;27;20858;-76
2021/01/28 09:50:20;;;;;;;11.20;5.80;;;5.60;99.90;;;;;;5113187;28;20570;-80
2021/01/28 09:52:49;;;;;;;8.70;4.77;;;5.70;99.90;;;;;;5098113;27;20543;-79
2021/01/28 09:55:20;;;;;;;8.13;3.77;;;5.70;99.90;;;;;;5116856;27;20541;-76
2021/01/28 09:57:46;;;;;;;4.70;3.27;;;5.70;99.90;;;;;;5118343;28;20485;-76
2021/01/28 10:00:17;;;;;;;4.83;3.30;;;5.80;99.90;;;;;;5113868;28;20865;-77
2021/01/28 10:02:47;;;;;;;6.83;3.17;;;5.80;99.90;;;;;;5100828;28;20432;-77
2021/01/28 10:05:17;;;;;;;4.37;2.87;;;5.80;99.90;;;;;;5117614;28;20476;-78
2021/01/28 10:07:45;;;;;;;4.60;2.77;;;5.80;99.90;;;;;;5117094;28;20464;-76
2021/01/28 10:10:13;;;;;;;11.00;2.80;;;5.70;99.90;;;;;;5117735;28;20836;-77
2021/01/28 10:12:40;;;;;;;4.43;3.10;;;5.70;99.90;;;;;;5105788;28;20464;-78
2021/01/28 10:15:08;;;;;;;4.77;3.20;;;5.70;99.90;;;;;;5096345;28;21026;-77
2021/01/28 10:17:34;;;;;;;6.97;3.80;;;5.70;99.90;;;;;;5107131;28;20480;-77
2021/01/28 10:20:05;;;;;;;9.73;3.90;;;5.70;99.90;;;;;;5100292;28;20453;-78
2021/01/28 10:22:35;;;;;;;10.10;5.10;;;5.70;99.90;;;;;;5100141;28;20448;-77
2021/01/28 10:25:02;;;;;;;6.53;3.90;;;5.70;99.90;;;;;;5108473;28;20500;-77
2021/01/28 10:27:28;;;;;;;5.27;3.57;;;5.80;99.90;;;;;;5105332;28;20924;-77
2021/01/28 10:29:55;;;;;;;10.40;5.07;;;5.80;99.90;;;;;;5117535;28;20447;-78
2021/01/28 10:32:22;;;;;;;9.40;4.10;;;5.90;99.90;;;;;;5116471;28;20458;-77
2021/01/28 10:34:51;;;;;;;8.40;5.10;;;5.90;99.90;;;;;;5114878;28;20445;-76
2021/01/28 10:37:19;;;;;;;6.70;4.00;;;5.90;99.90;;;;;;5103452;28;20989;-78
2021/01/28 10:39:46;;;;;;;8.20;5.67;;;5.90;99.90;;;;;;5114316;28;20539;-78
2021/01/28 10:42:18;;;;;;;7.47;5.40;;;5.90;99.90;;;;;;5117074;28;21006;-79
2021/01/28 10:44:46;;;;;;;6.83;4.63;;;5.90;99.90;;;;;;5096536;28;20442;-77
2021/01/28 10:47:14;;;;;;;9.00;5.00;;;5.90;99.90;;;;;;5095797;28;20504;-78
2021/01/28 10:49:40;;;;;;;7.60;5.00;;;5.90;99.90;;;;;;5099394;28;20454;-78
2021/01/28 10:52:07;;;;;;;8.03;5.00;;;6.00;99.90;;;;;;5097803;28;20460;-76
2021/01/28 10:54:33;;;;;;;8.17;5.13;;;6.00;99.90;;;;;;5112349;28;20461;-76
2021/01/28 10:57:00;;;;;;;8.13;4.70;;;6.00;99.90;;;;;;5116522;28;20491;-75
2021/01/28 10:59:26;;;;;;;10.97;5.90;;;6.00;99.90;;;;;;5116034;28;20897;-77
2021/01/28 11:01:53;;;;;;;6.40;3.93;;;5.90;99.90;;;;;;5097672;28;20484;-77
2021/01/28 11:04:20;;;;;;;11.47;4.80;;;6.00;99.90;;;;;;5116728;28;20518;-76
2021/01/28 11:06:47;;;;;;;6.90;4.07;;;6.00;99.90;;;;;;5115418;28;20481;-76
2021/01/28 11:09:13;;;;;;;7.73;5.27;;;5.90;99.90;;;;;;5116965;28;20532;-77
2021/01/28 11:11:40;;;;;;;8.60;5.50;;;5.90;99.90;;;;;;5100422;28;20532;-77
2021/01/28 11:14:06;;;;;;;6.67;4.10;;;6.00;99.90;;;;;;5112735;28;20529;-77
2021/01/28 11:16:35;;;;;;;10.50;5.20;;;5.90;99.90;;;;;;5113040;28;20857;-78
2021/01/28 11:19:03;;;;;;;5.47;4.27;;;6.00;99.90;;;;;;5110673;28;20448;-77
2021/01/28 11:21:30;;;;;;;7.73;4.40;;;6.00;99.90;;;;;;5105979;28;20532;-76
2021/01/28 11:23:56;;;;;;;8.17;4.80;;;6.00;99.90;;;;;;5106510;28;20494;-76
2021/01/28 11:26:23;;;;;;;4.60;3.73;;;6.10;99.90;;;;;;5102504;28;20487;-77
2021/01/28 11:28:49;;;;;;;10.40;4.73;;;6.00;99.90;;;;;;5106415;28;20501;-76
2021/01/28 11:31:18;;;;;;;7.40;5.10;;;6.00;99.90;;;;;;5115690;28;20906;-76
2021/01/28 11:33:45;;;;;;;8.30;4.80;;;6.00;99.90;;;;;;5107314;28;20453;-80
2021/01/28 11:36:11;;;;;;;7.53;4.57;;;6.00;99.90;;;;;;5109100;28;20490;-80
2021/01/28 11:38:38;;;;;;;7.00;4.67;;;6.00;99.90;;;;;;5096152;28;20812;-77
2021/01/28 11:41:05;;;;;;;8.97;5.80;;;5.90;99.90;;;;;;5096757;28;20477;-77
2021/01/28 11:43:31;;;;;;;8.27;5.53;;;5.80;99.90;;;;;;5096435;28;20456;-76
2021/01/28 11:45:57;;;;;;;8.40;6.37;;;5.90;99.90;;;;;;5109123;28;21019;-77
2021/01/28 11:48:24;;;;;;;8.00;5.30;;;5.80;99.90;;;;;;5105158;28;20450;-77
2021/01/28 11:50:50;;;;;;;5.60;4.13;;;5.80;99.90;;;;;;5114952;28;20468;-77
2021/01/28 11:53:19;;;;;;;7.77;5.80;;;5.80;99.90;;;;;;5095866;28;20501;-76
2021/01/28 11:55:46;;;;;;;8.07;5.77;;;5.80;99.90;;;;;;5107055;28;20594;-77
2021/01/28 11:58:13;;;;;;;11.23;5.73;;;5.80;99.90;;;;;;5106196;28;20567;-77
2021/01/28 12:00:40;;;;;;;11.10;5.40;;;5.80;99.90;;;;;;5114263;28;20512;-77
2021/01/28 12:03:06;;;;;;;7.80;5.87;;;5.70;99.90;;;;;;5112576;28;20543;-77
2021/01/28 12:05:33;;;;;;;8.47;5.80;;;5.70;99.90;;;;;;5102855;27;20476;-77
2021/01/28 12:08:00;;;;;;;11.67;7.60;;;5.70;99.90;;;;;;5112240;28;20958;-76
2021/01/28 12:10:29;;;;;;;7.43;5.30;;;5.60;99.90;;;;;;5113512;28;20532;-77
2021/01/28 12:12:56;;;;;;;7.83;5.20;;;5.60;99.90;;;;;;5108665;28;20456;-77
2021/01/28 12:15:24;;;;;;;7.30;5.50;;;5.70;99.90;;;;;;5114447;28;20471;-77
2021/01/28 12:17:51;;;;;;;5.80;4.30;;;5.80;99.90;;;;;;5110442;28;20458;-76
2021/01/28 12:20:19;;;;;;;6.23;4.53;;;5.80;99.90;;;;;;5108404;28;20535;-77
2021/01/28 12:22:45;;;;;;;5.20;4.20;;;5.70;99.90;;;;;;5099100;28;20525;-77
2021/01/28 12:25:12;;;;;;;9.37;5.70;;;5.70;99.90;;;;;;5104476;28;20458;-77
2021/01/28 12:27:39;;;;;;;7.10;5.20;;;5.70;99.90;;;;;;5113667;28;20461;-77
2021/01/28 12:30:09;;;;;;;6.30;4.13;;;5.80;99.90;;;;;;5114738;28;20442;-77
2021/01/28 12:32:36;;;;;;;9.70;6.20;;;5.90;99.90;;;;;;5114179;28;20520;-77
2021/01/28 12:35:03;;;;;;;7.43;5.23;;;5.90;99.90;;;;;;5114584;28;20667;-77
2021/01/28 12:37:29;;;;;;;7.50;4.60;;;5.90;99.90;;;;;;5114580;28;20585;-77
2021/01/28 12:39:56;;;;;;;5.00;3.90;;;6.00;99.90;;;;;;5114710;28;20532;-76
2021/01/28 12:42:25;;;;;;;5.33;4.20;;;6.00;99.90;;;;;;5114068;28;20448;-76
2021/01/28 12:44:52;;;;;;;5.87;4.83;;;6.00;99.90;;;;;;5114309;28;20445;-76
2021/01/28 12:47:22;;;;;;;7.30;4.53;;;6.10;99.90;;;;;;5114485;28;20587;-77
2021/01/28 12:49:48;;;;;;;8.07;3.87;;;6.00;99.90;;;;;;5112916;28;20442;-76
2021/01/28 12:52:15;;;;;;;6.50;5.60;;;6.10;99.90;;;;;;5114372;28;20847;-76
2021/01/28 12:54:42;;;;;;;6.47;5.23;;;6.20;99.90;;;;;;5113515;28;20496;-76
2021/01/28 12:57:08;;;;;;;5.70;4.17;;;6.20;99.90;;;;;;5116149;28;20469;-77
2021/01/28 12:59:35;;;;;;;6.43;4.50;;;6.30;99.90;;;;;;5113825;28;20434;-77
2021/01/28 13:02:06;;;;;;;7.93;3.90;;;6.40;99.90;;;;;;5120124;28;20477;-77
2021/01/28 13:04:34;;;;;;;10.60;4.33;;;6.50;99.90;;;;;;5114705;28;20433;-77